sensor_id;sensor_type;location;lat;lon;timestamp;P1;durP1;ratioP1;P2;durP2;ratioP2
36377;SDS011;22402;42.746;23.606;2022-08-19T00:00:35;9.00;;;5.67;;
36377;SDS011;22402;42.746;23.606;2022-08-19T00:03:01;6.03;;;5.43;;
36377;SDS011;22402;42.746;23.606;2022-08-19T00:05:26;9.47;;;6.67;;
36377;SDS011;22402;42.746;23.606;2022-08-19T00:07:51;6.07;;;5.17;;
36377;SDS011;22402;42.746;23.606;2022-08-19T00:10:18;8.13;;;6.00;;
36377;SDS011;22402;42.746;23.606;2022-08-19T00:12:43;9.73;;;5.27;;
36377;SDS011;22402;42.746;23.606;2022-08-19T00:15:09;6.60;;;6.00;;
36377;SDS011;22402;42.746;23.606;2022-08-19T00:17:38;6.83;;;5.63;;
36377;SDS011;22402;42.746;23.606;2022-08-19T00:20:04;7.20;;;6.00;;
36377;SDS011;22402;42.746;23.606;2022-08-19T00:22:29;7.93;;;5.60;;
36377;SDS011;22402;42.746;23.606;2022-08-19T00:24:55;7.40;;;5.77;;
36377;SDS011;22402;42.746;23.606;2022-08-19T00:27:20;6.83;;;5.20;;
36377;SDS011;22402;42.746;23.606;2022-08-19T00:29:45;6.90;;;5.80;;
36377;SDS011;22402;42.746;23.606;2022-08-19T00:32:10;10.30;;;5.40;;
36377;SDS011;22402;42.746;23.606;2022-08-19T00:34:35;9.93;;;6.37;;
36377;SDS011;22402;42.746;23.606;2022-08-19T00:37:01;7.67;;;6.10;;
36377;SDS011;22402;42.746;23.606;2022-08-19T00:39:26;8.37;;;5.80;;
36377;SDS011;22402;42.746;23.606;2022-08-19T00:41:51;9.20;;;6.00;;
36377;SDS011;22402;42.746;23.606;2022-08-19T00:44:21;7.63;;;6.07;;
36377;SDS011;22402;42.746;23.606;2022-08-19T00:46:47;11.63;;;7.00;;
36377;SDS011;22402;42.746;23.606;2022-08-19T00:49:14;7.50;;;6.10;;
36377;SDS011;22402;42.746;23.606;2022-08-19T00:51:41;6.50;;;5.10;;
36377;SDS011;22402;42.746;23.606;2022-08-19T00:54:07;6.80;;;5.73;;
36377;SDS011;22402;42.746;23.606;2022-08-19T00:56:33;6.40;;;5.77;;
36377;SDS011;22402;42.746;23.606;2022-08-19T00:58:58;9.13;;;6.10;;
36377;SDS011;22402;42.746;23.606;2022-08-19T01:01:24;7.30;;;5.83;;
36377;SDS011;22402;42.746;23.606;2022-08-19T01:03:49;8.63;;;5.70;;
36377;SDS011;22402;42.746;23.606;2022-08-19T01:06:14;6.90;;;5.53;;
36377;SDS011;22402;42.746;23.606;2022-08-19T01:08:40;8.20;;;5.93;;
36377;SDS011;22402;42.746;23.606;2022-08-19T01:11:05;8.10;;;5.13;;
36377;SDS011;22402;42.746;23.606;2022-08-19T01:13:32;13.80;;;5.77;;
36377;SDS011;22402;42.746;23.606;2022-08-19T01:16:03;8.50;;;5.40;;
36377;SDS011;22402;42.746;23.606;2022-08-19T01:18:29;7.20;;;5.13;;
36377;SDS011;22402;42.746;23.606;2022-08-19T01:20:56;5.57;;;5.07;;
36377;SDS011;22402;42.746;23.606;2022-08-19T01:23:22;8.10;;;5.20;;
36377;SDS011;22402;42.746;23.606;2022-08-19T01:25:49;7.28;;;5.30;;
36377;SDS011;22402;42.746;23.606;2022-08-19T01:28:18;7.00;;;5.77;;
36377;SDS011;22402;42.746;23.606;2022-08-19T01:30:44;6.23;;;4.70;;
36377;SDS011;22402;42.746;23.606;2022-08-19T01:33:10;8.13;;;5.83;;
36377;SDS011;22402;42.746;23.606;2022-08-19T01:35:35;7.53;;;5.40;;
36377;SDS011;22402;42.746;23.606;2022-08-19T01:38:02;9.03;;;5.03;;
36377;SDS011;22402;42.746;23.606;2022-08-19T01:40:30;7.90;;;5.63;;
36377;SDS011;22402;42.746;23.606;2022-08-19T01:42:55;7.37;;;5.53;;
36377;SDS011;22402;42.746;23.606;2022-08-19T01:45:21;5.90;;;5.30;;
36377;SDS011;22402;42.746;23.606;2022-08-19T01:47:47;9.83;;;5.53;;
36377;SDS011;22402;42.746;23.606;2022-08-19T01:50:13;8.43;;;5.57;;
36377;SDS011;22402;42.746;23.606;2022-08-19T01:52:39;5.63;;;4.80;;
36377;SDS011;22402;42.746;23.606;2022-08-19T01:55:06;6.60;;;5.90;;
36377;SDS011;22402;42.746;23.606;2022-08-19T01:57:32;10.03;;;5.93;;
36377;SDS011;22402;42.746;23.606;2022-08-19T01:59:57;6.73;;;5.47;;
36377;SDS011;22402;42.746;23.606;2022-08-19T02:02:23;8.00;;;5.43;;
36377;SDS011;22402;42.746;23.606;2022-08-19T02:04:48;8.20;;;5.83;;
36377;SDS011;22402;42.746;23.606;2022-08-19T02:07:13;6.40;;;5.33;;
36377;SDS011;22402;42.746;23.606;2022-08-19T02:09:38;6.60;;;5.67;;
36377;SDS011;22402;42.746;23.606;2022-08-19T02:12:04;8.40;;;6.00;;
36377;SDS011;22402;42.746;23.606;2022-08-19T02:14:29;7.47;;;5.40;;
36377;SDS011;22402;42.746;23.606;2022-08-19T02:16:55;7.73;;;5.67;;
36377;SDS011;22402;42.746;23.606;2022-08-19T02:19:20;6.07;;;5.47;;
36377;SDS011;22402;42.746;23.606;2022-08-19T02:21:45;9.53;;;5.80;;
36377;SDS011;22402;42.746;23.606;2022-08-19T02:24:10;8.30;;;5.70;;
36377;SDS011;22402;42.746;23.606;2022-08-19T02:26:36;9.07;;;5.80;;
36377;SDS011;22402;42.746;23.606;2022-08-19T02:29:01;12.63;;;5.77;;
36377;SDS011;22402;42.746;23.606;2022-08-19T02:31:26;8.17;;;6.03;;
36377;SDS011;22402;42.746;23.606;2022-08-19T02:33:52;6.03;;;4.93;;
36377;SDS011;22402;42.746;23.606;2022-08-19T02:36:17;8.27;;;6.10;;
36377;SDS011;22402;42.746;23.606;2022-08-19T02:38:43;6.70;;;6.00;;
36377;SDS011;22402;42.746;23.606;2022-08-19T02:41:14;7.37;;;5.50;;
36377;SDS011;22402;42.746;23.606;2022-08-19T02:43:40;9.77;;;6.30;;
36377;SDS011;22402;42.746;23.606;2022-08-19T02:51:19;7.47;;;6.30;;
36377;SDS011;22402;42.746;23.606;2022-08-19T02:53:45;7.50;;;6.70;;
36377;SDS011;22402;42.746;23.606;2022-08-19T02:56:10;9.70;;;5.63;;
36377;SDS011;22402;42.746;23.606;2022-08-19T02:58:36;9.50;;;6.13;;
36377;SDS011;22402;42.746;23.606;2022-08-19T03:01:01;6.53;;;5.93;;
36377;SDS011;22402;42.746;23.606;2022-08-19T03:03:26;6.80;;;6.10;;
36377;SDS011;22402;42.746;23.606;2022-08-19T03:05:52;5.70;;;5.10;;
36377;SDS011;22402;42.746;23.606;2022-08-19T03:08:17;9.70;;;5.27;;
36377;SDS011;22402;42.746;23.606;2022-08-19T03:10:43;8.13;;;5.40;;
36377;SDS011;22402;42.746;23.606;2022-08-19T03:13:10;8.27;;;5.83;;
36377;SDS011;22402;42.746;23.606;2022-08-19T03:15:38;6.13;;;4.97;;
36377;SDS011;22402;42.746;23.606;2022-08-19T03:18:03;6.70;;;5.23;;
36377;SDS011;22402;42.746;23.606;2022-08-19T03:20:29;5.63;;;4.83;;
36377;SDS011;22402;42.746;23.606;2022-08-19T03:22:54;7.43;;;6.43;;
36377;SDS011;22402;42.746;23.606;2022-08-19T03:25:19;9.27;;;5.50;;
36377;SDS011;22402;42.746;23.606;2022-08-19T03:27:44;7.23;;;5.50;;
36377;SDS011;22402;42.746;23.606;2022-08-19T03:30:10;9.30;;;6.47;;
36377;SDS011;22402;42.746;23.606;2022-08-19T03:32:35;5.73;;;4.97;;
36377;SDS011;22402;42.746;23.606;2022-08-19T03:35:00;7.00;;;5.90;;
36377;SDS011;22402;42.746;23.606;2022-08-19T03:37:26;7.43;;;5.00;;
36377;SDS011;22402;42.746;23.606;2022-08-19T03:39:51;10.27;;;7.20;;
36377;SDS011;22402;42.746;23.606;2022-08-19T03:42:16;7.23;;;5.60;;
36377;SDS011;22402;42.746;23.606;2022-08-19T03:44:41;13.00;;;5.77;;
36377;SDS011;22402;42.746;23.606;2022-08-19T03:47:07;8.60;;;6.20;;
36377;SDS011;22402;42.746;23.606;2022-08-19T03:49:32;11.77;;;6.70;;
36377;SDS011;22402;42.746;23.606;2022-08-19T03:51:58;8.50;;;6.20;;
36377;SDS011;22402;42.746;23.606;2022-08-19T03:54:24;9.40;;;5.90;;
36377;SDS011;22402;42.746;23.606;2022-08-19T03:56:50;9.17;;;6.03;;
36377;SDS011;22402;42.746;23.606;2022-08-19T03:59:17;7.67;;;5.83;;
36377;SDS011;22402;42.746;23.606;2022-08-19T04:01:43;6.80;;;5.83;;
36377;SDS011;22402;42.746;23.606;2022-08-19T04:04:08;14.03;;;6.30;;
36377;SDS011;22402;42.746;23.606;2022-08-19T04:06:34;7.40;;;6.03;;
36377;SDS011;22402;42.746;23.606;2022-08-19T04:09:01;9.20;;;6.97;;
36377;SDS011;22402;42.746;23.606;2022-08-19T04:11:28;9.20;;;5.90;;
36377;SDS011;22402;42.746;23.606;2022-08-19T04:13:53;6.93;;;5.93;;
36377;SDS011;22402;42.746;23.606;2022-08-19T04:16:19;7.90;;;6.13;;
36377;SDS011;22402;42.746;23.606;2022-08-19T04:18:44;6.13;;;5.57;;
36377;SDS011;22402;42.746;23.606;2022-08-19T04:21:14;11.23;;;6.47;;
36377;SDS011;22402;42.746;23.606;2022-08-19T04:23:40;6.60;;;5.90;;
36377;SDS011;22402;42.746;23.606;2022-08-19T04:26:05;9.67;;;7.30;;
36377;SDS011;22402;42.746;23.606;2022-08-19T04:28:30;9.23;;;6.60;;
36377;SDS011;22402;42.746;23.606;2022-08-19T04:30:55;7.67;;;6.87;;
36377;SDS011;22402;42.746;23.606;2022-08-19T04:33:22;9.23;;;6.93;;
36377;SDS011;22402;42.746;23.606;2022-08-19T04:35:49;9.10;;;7.70;;
36377;SDS011;22402;42.746;23.606;2022-08-19T04:38:15;12.90;;;7.70;;
36377;SDS011;22402;42.746;23.606;2022-08-19T04:40:41;11.63;;;7.70;;
36377;SDS011;22402;42.746;23.606;2022-08-19T04:43:06;8.27;;;5.77;;
36377;SDS011;22402;42.746;23.606;2022-08-19T04:45:31;7.60;;;6.80;;
36377;SDS011;22402;42.746;23.606;2022-08-19T04:47:56;8.97;;;5.63;;
36377;SDS011;22402;42.746;23.606;2022-08-19T04:50:22;7.37;;;5.63;;
36377;SDS011;22402;42.746;23.606;2022-08-19T04:52:47;8.47;;;5.67;;
36377;SDS011;22402;42.746;23.606;2022-08-19T04:55:14;6.50;;;5.20;;
36377;SDS011;22402;42.746;23.606;2022-08-19T04:57:39;9.10;;;6.00;;
36377;SDS011;22402;42.746;23.606;2022-08-19T05:00:05;7.43;;;5.53;;
36377;SDS011;22402;42.746;23.606;2022-08-19T05:02:31;9.07;;;5.80;;
36377;SDS011;22402;42.746;23.606;2022-08-19T05:04:56;7.50;;;5.43;;
36377;SDS011;22402;42.746;23.606;2022-08-19T05:07:22;7.43;;;5.43;;
36377;SDS011;22402;42.746;23.606;2022-08-19T05:09:47;9.13;;;6.23;;
36377;SDS011;22402;42.746;23.606;2022-08-19T05:12:12;9.20;;;6.22;;
36377;SDS011;22402;42.746;23.606;2022-08-19T05:14:37;10.17;;;5.53;;
36377;SDS011;22402;42.746;23.606;2022-08-19T05:17:02;11.23;;;5.20;;
36377;SDS011;22402;42.746;23.606;2022-08-19T05:19:27;8.30;;;4.80;;
36377;SDS011;22402;42.746;23.606;2022-08-19T05:21:53;8.47;;;5.93;;
36377;SDS011;22402;42.746;23.606;2022-08-19T05:24:19;7.27;;;4.90;;
36377;SDS011;22402;42.746;23.606;2022-08-19T05:26:46;9.53;;;5.73;;
36377;SDS011;22402;42.746;23.606;2022-08-19T05:29:12;6.90;;;5.43;;
36377;SDS011;22402;42.746;23.606;2022-08-19T05:31:37;8.20;;;5.03;;
36377;SDS011;22402;42.746;23.606;2022-08-19T05:34:02;7.47;;;5.80;;
36377;SDS011;22402;42.746;23.606;2022-08-19T05:36:28;5.80;;;5.00;;
36377;SDS011;22402;42.746;23.606;2022-08-19T05:38:54;10.43;;;6.43;;
36377;SDS011;22402;42.746;23.606;2022-08-19T05:41:19;8.17;;;6.27;;
36377;SDS011;22402;42.746;23.606;2022-08-19T05:43:45;6.93;;;6.23;;
36377;SDS011;22402;42.746;23.606;2022-08-19T05:46:15;8.77;;;6.00;;
36377;SDS011;22402;42.746;23.606;2022-08-19T05:48:41;8.30;;;6.40;;
36377;SDS011;22402;42.746;23.606;2022-08-19T05:51:06;11.13;;;5.83;;
36377;SDS011;22402;42.746;23.606;2022-08-19T05:53:32;8.57;;;6.57;;
36377;SDS011;22402;42.746;23.606;2022-08-19T05:55:57;8.07;;;6.20;;
36377;SDS011;22402;42.746;23.606;2022-08-19T05:58:22;10.20;;;6.03;;
36377;SDS011;22402;42.746;23.606;2022-08-19T06:00:47;8.88;;;6.63;;
36377;SDS011;22402;42.746;23.606;2022-08-19T06:03:13;9.77;;;6.00;;
36377;SDS011;22402;42.746;23.606;2022-08-19T06:05:38;7.23;;;5.97;;
36377;SDS011;22402;42.746;23.606;2022-08-19T06:08:03;8.60;;;6.03;;
36377;SDS011;22402;42.746;23.606;2022-08-19T06:10:28;9.07;;;6.90;;
36377;SDS011;22402;42.746;23.606;2022-08-19T06:12:53;8.20;;;6.00;;
36377;SDS011;22402;42.746;23.606;2022-08-19T06:15:19;8.07;;;6.33;;
36377;SDS011;22402;42.746;23.606;2022-08-19T06:17:44;9.43;;;6.60;;
36377;SDS011;22402;42.746;23.606;2022-08-19T06:20:10;8.20;;;6.80;;
36377;SDS011;22402;42.746;23.606;2022-08-19T06:22:39;12.77;;;6.50;;
36377;SDS011;22402;42.746;23.606;2022-08-19T06:25:04;9.00;;;5.93;;
36377;SDS011;22402;42.746;23.606;2022-08-19T06:27:30;9.23;;;7.00;;
36377;SDS011;22402;42.746;23.606;2022-08-19T06:29:55;9.83;;;6.60;;
36377;SDS011;22402;42.746;23.606;2022-08-19T06:32:20;9.23;;;6.82;;
36377;SDS011;22402;42.746;23.606;2022-08-19T06:34:45;8.38;;;5.20;;
36377;SDS011;22402;42.746;23.606;2022-08-19T06:37:11;9.53;;;6.33;;
36377;SDS011;22402;42.746;23.606;2022-08-19T06:39:37;8.97;;;6.17;;
36377;SDS011;22402;42.746;23.606;2022-08-19T06:42:03;13.60;;;6.60;;
36377;SDS011;22402;42.746;23.606;2022-08-19T06:44:30;7.80;;;5.83;;
36377;SDS011;22402;42.746;23.606;2022-08-19T06:46:55;10.87;;;5.73;;
36377;SDS011;22402;42.746;23.606;2022-08-19T06:49:21;8.40;;;6.13;;
36377;SDS011;22402;42.746;23.606;2022-08-19T06:51:47;6.93;;;5.43;;
36377;SDS011;22402;42.746;23.606;2022-08-19T06:54:12;8.60;;;5.70;;
36377;SDS011;22402;42.746;23.606;2022-08-19T06:56:38;6.10;;;5.60;;
36377;SDS011;22402;42.746;23.606;2022-08-19T06:59:10;6.20;;;5.57;;
36377;SDS011;22402;42.746;23.606;2022-08-19T07:01:36;9.40;;;5.50;;
36377;SDS011;22402;42.746;23.606;2022-08-19T07:04:02;7.00;;;5.80;;
36377;SDS011;22402;42.746;23.606;2022-08-19T07:06:28;7.63;;;5.90;;
36377;SDS011;22402;42.746;23.606;2022-08-19T07:08:53;12.23;;;5.70;;
36377;SDS011;22402;42.746;23.606;2022-08-19T07:11:18;14.67;;;6.07;;
36377;SDS011;22402;42.746;23.606;2022-08-19T07:13:44;9.33;;;6.30;;
36377;SDS011;22402;42.746;23.606;2022-08-19T07:16:11;7.10;;;5.87;;
36377;SDS011;22402;42.746;23.606;2022-08-19T07:18:37;8.37;;;5.77;;
36377;SDS011;22402;42.746;23.606;2022-08-19T07:21:06;8.10;;;5.63;;
36377;SDS011;22402;42.746;23.606;2022-08-19T07:23:32;6.37;;;5.30;;
36377;SDS011;22402;42.746;23.606;2022-08-19T07:25:57;8.40;;;5.43;;
36377;SDS011;22402;42.746;23.606;2022-08-19T07:28:22;8.67;;;5.47;;
36377;SDS011;22402;42.746;23.606;2022-08-19T07:30:47;12.70;;;5.33;;
36377;SDS011;22402;42.746;23.606;2022-08-19T07:33:12;5.38;;;4.68;;
36377;SDS011;22402;42.746;23.606;2022-08-19T07:35:38;8.13;;;5.43;;
36377;SDS011;22402;42.746;23.606;2022-08-19T07:38:03;6.63;;;5.13;;
36377;SDS011;22402;42.746;23.606;2022-08-19T07:40:28;10.30;;;5.17;;
36377;SDS011;22402;42.746;23.606;2022-08-19T07:42:53;4.60;;;4.13;;
36377;SDS011;22402;42.746;23.606;2022-08-19T07:45:18;7.27;;;4.57;;
36377;SDS011;22402;42.746;23.606;2022-08-19T07:47:44;7.23;;;5.30;;
36377;SDS011;22402;42.746;23.606;2022-08-19T07:50:09;6.27;;;3.97;;
36377;SDS011;22402;42.746;23.606;2022-08-19T07:52:35;7.73;;;5.47;;
36377;SDS011;22402;42.746;23.606;2022-08-19T07:55:01;8.93;;;5.10;;
36377;SDS011;22402;42.746;23.606;2022-08-19T07:57:26;9.90;;;4.73;;
36377;SDS011;22402;42.746;23.606;2022-08-19T07:59:51;9.10;;;5.50;;
36377;SDS011;22402;42.746;23.606;2022-08-19T08:02:16;7.30;;;5.60;;
36377;SDS011;22402;42.746;23.606;2022-08-19T08:04:41;12.60;;;5.20;;
36377;SDS011;22402;42.746;23.606;2022-08-19T08:07:07;12.73;;;5.00;;
36377;SDS011;22402;42.746;23.606;2022-08-19T08:09:34;10.23;;;4.80;;
36377;SDS011;22402;42.746;23.606;2022-08-19T08:12:03;9.23;;;4.53;;
36377;SDS011;22402;42.746;23.606;2022-08-19T08:14:47;14.50;;;5.20;;
36377;SDS011;22402;42.746;23.606;2022-08-19T08:17:14;16.27;;;5.67;;
36377;SDS011;22402;42.746;23.606;2022-08-19T08:19:39;15.03;;;5.60;;
36377;SDS011;22402;42.746;23.606;2022-08-19T08:22:05;6.53;;;5.00;;
36377;SDS011;22402;42.746;23.606;2022-08-19T08:24:30;10.35;;;5.60;;
36377;SDS011;22402;42.746;23.606;2022-08-19T08:26:56;6.10;;;4.30;;
36377;SDS011;22402;42.746;23.606;2022-08-19T08:29:21;11.33;;;5.10;;
36377;SDS011;22402;42.746;23.606;2022-08-19T08:31:46;10.97;;;5.80;;
36377;SDS011;22402;42.746;23.606;2022-08-19T08:34:12;11.40;;;6.13;;
36377;SDS011;22402;42.746;23.606;2022-08-19T08:36:39;9.83;;;4.87;;
36377;SDS011;22402;42.746;23.606;2022-08-19T08:39:04;9.53;;;5.63;;
36377;SDS011;22402;42.746;23.606;2022-08-19T08:43:55;11.20;;;4.80;;
36377;SDS011;22402;42.746;23.606;2022-08-19T08:46:25;15.63;;;4.60;;
36377;SDS011;22402;42.746;23.606;2022-08-19T08:48:53;6.73;;;4.23;;
36377;SDS011;22402;42.746;23.606;2022-08-19T08:51:38;12.00;;;4.70;;
36377;SDS011;22402;42.746;23.606;2022-08-19T08:54:06;7.03;;;4.80;;
36377;SDS011;22402;42.746;23.606;2022-08-19T08:56:32;9.83;;;4.00;;
36377;SDS011;22402;42.746;23.606;2022-08-19T08:59:16;5.30;;;3.70;;
36377;SDS011;22402;42.746;23.606;2022-08-19T09:01:44;6.97;;;4.57;;
36377;SDS011;22402;42.746;23.606;2022-08-19T09:04:10;8.33;;;4.03;;
36377;SDS011;22402;42.746;23.606;2022-08-19T09:09:22;8.50;;;5.20;;
36377;SDS011;22402;42.746;23.606;2022-08-19T09:17:03;9.83;;;4.17;;
36377;SDS011;22402;42.746;23.606;2022-08-19T09:19:28;5.80;;;4.23;;
36377;SDS011;22402;42.746;23.606;2022-08-19T09:21:54;10.00;;;4.03;;
36377;SDS011;22402;42.746;23.606;2022-08-19T09:24:19;6.47;;;3.70;;
36377;SDS011;22402;42.746;23.606;2022-08-19T09:26:44;10.43;;;4.43;;
36377;SDS011;22402;42.746;23.606;2022-08-19T09:29:09;9.23;;;3.90;;
36377;SDS011;22402;42.746;23.606;2022-08-19T09:31:35;6.80;;;4.73;;
36377;SDS011;22402;42.746;23.606;2022-08-19T09:34:00;4.83;;;3.33;;
36377;SDS011;22402;42.746;23.606;2022-08-19T09:36:27;5.50;;;4.20;;
36377;SDS011;22402;42.746;23.606;2022-08-19T09:38:52;4.37;;;3.70;;
36377;SDS011;22402;42.746;23.606;2022-08-19T09:41:19;4.07;;;3.07;;
36377;SDS011;22402;42.746;23.606;2022-08-19T09:43:45;13.90;;;3.20;;
36377;SDS011;22402;42.746;23.606;2022-08-19T09:46:11;6.40;;;3.83;;
36377;SDS011;22402;42.746;23.606;2022-08-19T09:48:36;3.20;;;2.70;;
36377;SDS011;22402;42.746;23.606;2022-08-19T09:51:02;9.03;;;3.60;;
36377;SDS011;22402;42.746;23.606;2022-08-19T09:53:28;3.73;;;3.43;;
36377;SDS011;22402;42.746;23.606;2022-08-19T09:55:54;3.70;;;2.93;;
36377;SDS011;22402;42.746;23.606;2022-08-19T09:58:20;3.90;;;3.60;;
36377;SDS011;22402;42.746;23.606;2022-08-19T10:00:45;7.83;;;3.50;;
36377;SDS011;22402;42.746;23.606;2022-08-19T10:03:10;12.33;;;3.77;;
36377;SDS011;22402;42.746;23.606;2022-08-19T10:05:35;4.77;;;3.80;;
36377;SDS011;22402;42.746;23.606;2022-08-19T10:08:00;11.77;;;3.40;;
36377;SDS011;22402;42.746;23.606;2022-08-19T10:10:25;14.53;;;4.00;;
36377;SDS011;22402;42.746;23.606;2022-08-19T10:12:51;7.50;;;4.30;;
36377;SDS011;22402;42.746;23.606;2022-08-19T10:15:16;4.77;;;3.67;;
36377;SDS011;22402;42.746;23.606;2022-08-19T10:17:41;6.30;;;3.37;;
36377;SDS011;22402;42.746;23.606;2022-08-19T10:20:07;6.10;;;3.60;;
36377;SDS011;22402;42.746;23.606;2022-08-19T10:22:32;8.13;;;3.87;;
36377;SDS011;22402;42.746;23.606;2022-08-19T10:24:57;4.23;;;3.80;;
36377;SDS011;22402;42.746;23.606;2022-08-19T10:27:22;17.50;;;4.07;;
36377;SDS011;22402;42.746;23.606;2022-08-19T10:29:48;7.33;;;3.60;;
36377;SDS011;22402;42.746;23.606;2022-08-19T10:32:13;7.23;;;3.50;;
36377;SDS011;22402;42.746;23.606;2022-08-19T10:34:38;12.67;;;4.00;;
36377;SDS011;22402;42.746;23.606;2022-08-19T10:37:04;10.00;;;3.87;;
36377;SDS011;22402;42.746;23.606;2022-08-19T10:39:30;6.73;;;4.30;;
36377;SDS011;22402;42.746;23.606;2022-08-19T10:41:55;7.60;;;3.60;;
36377;SDS011;22402;42.746;23.606;2022-08-19T10:44:20;5.00;;;3.33;;
36377;SDS011;22402;42.746;23.606;2022-08-19T10:46:45;4.00;;;3.57;;
36377;SDS011;22402;42.746;23.606;2022-08-19T10:49:10;6.53;;;3.70;;
36377;SDS011;22402;42.746;23.606;2022-08-19T10:51:36;7.10;;;3.63;;
36377;SDS011;22402;42.746;23.606;2022-08-19T10:54:02;9.13;;;3.87;;
36377;SDS011;22402;42.746;23.606;2022-08-19T10:56:28;4.87;;;3.63;;
36377;SDS011;22402;42.746;23.606;2022-08-19T10:58:53;11.53;;;4.20;;
36377;SDS011;22402;42.746;23.606;2022-08-19T11:01:18;11.30;;;5.10;;
36377;SDS011;22402;42.746;23.606;2022-08-19T11:03:43;7.90;;;4.10;;
36377;SDS011;22402;42.746;23.606;2022-08-19T11:06:08;8.00;;;4.53;;
36377;SDS011;22402;42.746;23.606;2022-08-19T11:08:34;5.60;;;3.53;;
36377;SDS011;22402;42.746;23.606;2022-08-19T11:11:00;9.60;;;3.43;;
36377;SDS011;22402;42.746;23.606;2022-08-19T11:13:26;10.87;;;3.97;;
36377;SDS011;22402;42.746;23.606;2022-08-19T11:15:58;4.30;;;3.90;;
36377;SDS011;22402;42.746;23.606;2022-08-19T11:18:24;5.23;;;4.20;;
36377;SDS011;22402;42.746;23.606;2022-08-19T11:20:49;6.93;;;4.03;;
36377;SDS011;22402;42.746;23.606;2022-08-19T11:23:14;10.43;;;3.77;;
36377;SDS011;22402;42.746;23.606;2022-08-19T11:25:39;6.20;;;3.70;;
36377;SDS011;22402;42.746;23.606;2022-08-19T11:28:05;10.37;;;4.27;;
36377;SDS011;22402;42.746;23.606;2022-08-19T11:30:30;9.37;;;4.20;;
36377;SDS011;22402;42.746;23.606;2022-08-19T11:32:55;10.33;;;4.13;;
36377;SDS011;22402;42.746;23.606;2022-08-19T11:35:20;6.33;;;4.20;;
36377;SDS011;22402;42.746;23.606;2022-08-19T11:37:45;6.70;;;4.40;;
36377;SDS011;22402;42.746;23.606;2022-08-19T11:40:11;15.10;;;6.97;;
36377;SDS011;22402;42.746;23.606;2022-08-19T11:42:36;8.60;;;4.27;;
36377;SDS011;22402;42.746;23.606;2022-08-19T11:45:02;8.10;;;4.80;;
36377;SDS011;22402;42.746;23.606;2022-08-19T11:47:27;16.20;;;7.43;;
36377;SDS011;22402;42.746;23.606;2022-08-19T11:49:52;10.70;;;4.40;;
36377;SDS011;22402;42.746;23.606;2022-08-19T11:52:17;6.13;;;3.80;;
36377;SDS011;22402;42.746;23.606;2022-08-19T11:54:43;7.87;;;4.37;;
36377;SDS011;22402;42.746;23.606;2022-08-19T11:57:08;6.90;;;3.90;;
36377;SDS011;22402;42.746;23.606;2022-08-19T11:59:33;7.27;;;4.43;;
36377;SDS011;22402;42.746;23.606;2022-08-19T12:01:58;6.53;;;3.93;;
36377;SDS011;22402;42.746;23.606;2022-08-19T12:04:23;8.63;;;5.13;;
36377;SDS011;22402;42.746;23.606;2022-08-19T12:06:49;9.53;;;4.10;;
36377;SDS011;22402;42.746;23.606;2022-08-19T12:09:14;9.73;;;4.30;;
36377;SDS011;22402;42.746;23.606;2022-08-19T12:11:39;5.90;;;3.60;;
36377;SDS011;22402;42.746;23.606;2022-08-19T12:14:04;5.53;;;4.00;;
36377;SDS011;22402;42.746;23.606;2022-08-19T12:16:30;3.97;;;3.33;;
36377;SDS011;22402;42.746;23.606;2022-08-19T12:18:56;5.53;;;3.70;;
36377;SDS011;22402;42.746;23.606;2022-08-19T12:21:22;8.90;;;3.50;;
36377;SDS011;22402;42.746;23.606;2022-08-19T12:23:49;4.77;;;4.17;;
36377;SDS011;22402;42.746;23.606;2022-08-19T12:26:14;7.03;;;4.10;;
36377;SDS011;22402;42.746;23.606;2022-08-19T12:28:40;8.00;;;5.20;;
36377;SDS011;22402;42.746;23.606;2022-08-19T12:31:05;7.70;;;4.53;;
36377;SDS011;22402;42.746;23.606;2022-08-19T12:33:31;13.13;;;3.97;;
36377;SDS011;22402;42.746;23.606;2022-08-19T12:36:00;9.27;;;4.50;;
36377;SDS011;22402;42.746;23.606;2022-08-19T12:38:25;4.67;;;3.50;;
36377;SDS011;22402;42.746;23.606;2022-08-19T12:40:51;4.90;;;3.70;;
36377;SDS011;22402;42.746;23.606;2022-08-19T12:43:16;5.77;;;4.33;;
36377;SDS011;22402;42.746;23.606;2022-08-19T12:45:41;16.47;;;5.07;;
36377;SDS011;22402;42.746;23.606;2022-08-19T12:48:06;5.90;;;3.53;;
36377;SDS011;22402;42.746;23.606;2022-08-19T12:50:32;5.00;;;3.80;;
36377;SDS011;22402;42.746;23.606;2022-08-19T12:52:57;11.83;;;4.47;;
36377;SDS011;22402;42.746;23.606;2022-08-19T12:55:22;7.40;;;4.17;;
36377;SDS011;22402;42.746;23.606;2022-08-19T12:57:47;6.17;;;4.53;;
36377;SDS011;22402;42.746;23.606;2022-08-19T13:00:14;5.93;;;3.80;;
36377;SDS011;22402;42.746;23.606;2022-08-19T13:02:42;8.83;;;4.37;;
36377;SDS011;22402;42.746;23.606;2022-08-19T13:05:08;10.90;;;4.10;;
36377;SDS011;22402;42.746;23.606;2022-08-19T13:07:34;24.33;;;9.80;;
36377;SDS011;22402;42.746;23.606;2022-08-19T13:09:59;6.70;;;4.40;;
36377;SDS011;22402;42.746;23.606;2022-08-19T13:12:24;7.20;;;3.93;;
36377;SDS011;22402;42.746;23.606;2022-08-19T13:14:50;8.93;;;4.33;;
36377;SDS011;22402;42.746;23.606;2022-08-19T13:17:15;12.27;;;4.43;;
36377;SDS011;22402;42.746;23.606;2022-08-19T13:19:40;11.80;;;5.60;;
36377;SDS011;22402;42.746;23.606;2022-08-19T13:22:06;6.10;;;3.80;;
36377;SDS011;22402;42.746;23.606;2022-08-19T13:24:31;4.10;;;3.70;;
36377;SDS011;22402;42.746;23.606;2022-08-19T13:26:56;5.43;;;3.60;;
36377;SDS011;22402;42.746;23.606;2022-08-19T13:29:21;5.53;;;3.60;;
36377;SDS011;22402;42.746;23.606;2022-08-19T13:31:47;7.75;;;4.40;;
36377;SDS011;22402;42.746;23.606;2022-08-19T13:34:12;5.85;;;4.50;;
36377;SDS011;22402;42.746;23.606;2022-08-19T13:36:38;5.57;;;3.93;;
36377;SDS011;22402;42.746;23.606;2022-08-19T13:39:04;6.90;;;3.60;;
36377;SDS011;22402;42.746;23.606;2022-08-19T13:41:29;10.27;;;4.70;;
36377;SDS011;22402;42.746;23.606;2022-08-19T13:43:55;8.13;;;4.47;;
36377;SDS011;22402;42.746;23.606;2022-08-19T13:46:20;6.57;;;3.80;;
36377;SDS011;22402;42.746;23.606;2022-08-19T13:48:46;13.37;;;8.10;;
36377;SDS011;22402;42.746;23.606;2022-08-19T13:51:11;7.37;;;4.00;;
36377;SDS011;22402;42.746;23.606;2022-08-19T13:53:37;8.53;;;4.03;;
36377;SDS011;22402;42.746;23.606;2022-08-19T13:56:04;4.90;;;3.80;;
36377;SDS011;22402;42.746;23.606;2022-08-19T13:58:29;18.53;;;4.13;;
36377;SDS011;22402;42.746;23.606;2022-08-19T14:00:54;10.60;;;4.60;;
36377;SDS011;22402;42.746;23.606;2022-08-19T14:03:20;11.23;;;4.60;;
36377;SDS011;22402;42.746;23.606;2022-08-19T14:05:45;9.00;;;4.20;;
36377;SDS011;22402;42.746;23.606;2022-08-19T14:08:10;12.10;;;4.47;;
36377;SDS011;22402;42.746;23.606;2022-08-19T14:10:35;10.97;;;4.20;;
36377;SDS011;22402;42.746;23.606;2022-08-19T14:13:02;8.80;;;5.50;;
36377;SDS011;22402;42.746;23.606;2022-08-19T14:15:27;6.40;;;4.20;;
36377;SDS011;22402;42.746;23.606;2022-08-19T14:17:52;7.30;;;3.80;;
36377;SDS011;22402;42.746;23.606;2022-08-19T14:20:18;9.60;;;4.50;;
36377;SDS011;22402;42.746;23.606;2022-08-19T14:22:43;5.40;;;3.60;;
36377;SDS011;22402;42.746;23.606;2022-08-19T14:25:10;8.57;;;3.90;;
36377;SDS011;22402;42.746;23.606;2022-08-19T14:27:36;7.70;;;4.57;;
36377;SDS011;22402;42.746;23.606;2022-08-19T14:30:02;6.73;;;3.70;;
36377;SDS011;22402;42.746;23.606;2022-08-19T14:32:27;4.63;;;3.50;;
36377;SDS011;22402;42.746;23.606;2022-08-19T14:34:53;8.13;;;4.00;;
36377;SDS011;22402;42.746;23.606;2022-08-19T14:37:18;4.00;;;3.40;;